sensor_id;sensor_type;location;lat;lon;timestamp;temperature;humidity
16976;DHT22;8604;48.148;-1.786;2023-08-06T00:01:56;14.70;99.90
16976;DHT22;8604;48.148;-1.786;2023-08-06T00:04:25;14.70;99.90
16976;DHT22;8604;48.148;-1.786;2023-08-06T00:06:53;14.60;99.90
16976;DHT22;8604;48.148;-1.786;2023-08-06T00:09:22;14.60;99.90
16976;DHT22;8604;48.148;-1.786;2023-08-06T00:11:52;14.60;99.90
16976;DHT22;8604;48.148;-1.786;2023-08-06T00:14:21;14.60;99.90
16976;DHT22;8604;48.148;-1.786;2023-08-06T00:16:51;14.60;99.90
16976;DHT22;8604;48.148;-1.786;2023-08-06T00:19:19;14.60;99.90
16976;DHT22;8604;48.148;-1.786;2023-08-06T00:21:47;14.60;99.90
16976;DHT22;8604;48.148;-1.786;2023-08-06T00:24:16;14.50;99.90
16976;DHT22;8604;48.148;-1.786;2023-08-06T00:26:44;14.50;99.90
16976;DHT22;8604;48.148;-1.786;2023-08-06T00:29:13;14.50;99.90
16976;DHT22;8604;48.148;-1.786;2023-08-06T00:31:42;14.50;99.90
16976;DHT22;8604;48.148;-1.786;2023-08-06T00:34:11;14.50;99.90
16976;DHT22;8604;48.148;-1.786;2023-08-06T00:36:40;14.50;99.90
16976;DHT22;8604;48.148;-1.786;2023-08-06T00:39:08;14.50;99.90
16976;DHT22;8604;48.148;-1.786;2023-08-06T00:41:36;14.50;99.90
16976;DHT22;8604;48.148;-1.786;2023-08-06T00:44:05;14.40;99.90
16976;DHT22;8604;48.148;-1.786;2023-08-06T00:46:33;14.40;99.90
16976;DHT22;8604;48.148;-1.786;2023-08-06T00:49:02;14.40;99.90
16976;DHT22;8604;48.148;-1.786;2023-08-06T00:51:32;14.40;99.90
16976;DHT22;8604;48.148;-1.786;2023-08-06T00:54:02;14.40;99.90
16976;DHT22;8604;48.148;-1.786;2023-08-06T00:56:32;14.40;99.90
16976;DHT22;8604;48.148;-1.786;2023-08-06T00:59:01;14.50;99.90
16976;DHT22;8604;48.148;-1.786;2023-08-06T01:01:29;14.50;99.90
16976;DHT22;8604;48.148;-1.786;2023-08-06T01:03:58;14.50;99.90
16976;DHT22;8604;48.148;-1.786;2023-08-06T01:06:43;14.50;99.90
16976;DHT22;8604;48.148;-1.786;2023-08-06T01:09:25;14.50;99.90
16976;DHT22;8604;48.148;-1.786;2023-08-06T01:12:05;14.40;99.90
16976;DHT22;8604;48.148;-1.786;2023-08-06T01:14:41;14.40;99.90
16976;DHT22;8604;48.148;-1.786;2023-08-06T01:17:12;14.40;99.90
16976;DHT22;8604;48.148;-1.786;2023-08-06T01:19:42;14.40;99.90
16976;DHT22;8604;48.148;-1.786;2023-08-06T01:22:11;14.40;99.90
16976;DHT22;8604;48.148;-1.786;2023-08-06T01:24:41;14.40;99.90
16976;DHT22;8604;48.148;-1.786;2023-08-06T01:27:21;14.40;99.90
16976;DHT22;8604;48.148;-1.786;2023-08-06T01:29:57;14.40;99.90
16976;DHT22;8604;48.148;-1.786;2023-08-06T01:32:29;14.40;99.90
16976;DHT22;8604;48.148;-1.786;2023-08-06T01:35:00;14.30;99.90
16976;DHT22;8604;48.148;-1.786;2023-08-06T01:37:31;14.40;99.90
16976;DHT22;8604;48.148;-1.786;2023-08-06T01:40:06;14.40;99.90
16976;DHT22;8604;48.148;-1.786;2023-08-06T01:42:35;14.40;99.90
16976;DHT22;8604;48.148;-1.786;2023-08-06T01:45:04;14.40;99.90
16976;DHT22;8604;48.148;-1.786;2023-08-06T01:47:32;14.40;99.90
16976;DHT22;8604;48.148;-1.786;2023-08-06T01:50:01;14.30;99.90
16976;DHT22;8604;48.148;-1.786;2023-08-06T01:52:29;14.30;99.90
16976;DHT22;8604;48.148;-1.786;2023-08-06T01:54:59;14.30;99.90
16976;DHT22;8604;48.148;-1.786;2023-08-06T01:57:28;14.30;99.90
16976;DHT22;8604;48.148;-1.786;2023-08-06T01:59:56;14.30;99.90
16976;DHT22;8604;48.148;-1.786;2023-08-06T02:02:25;14.30;99.90
16976;DHT22;8604;48.148;-1.786;2023-08-06T02:04:53;14.20;99.90
16976;DHT22;8604;48.148;-1.786;2023-08-06T02:07:22;14.20;99.90
16976;DHT22;8604;48.148;-1.786;2023-08-06T02:09:51;14.20;99.90
16976;DHT22;8604;48.148;-1.786;2023-08-06T02:12:24;14.20;99.90
16976;DHT22;8604;48.148;-1.786;2023-08-06T02:14:52;14.10;99.90
16976;DHT22;8604;48.148;-1.786;2023-08-06T02:17:20;14.20;99.90
16976;DHT22;8604;48.148;-1.786;2023-08-06T02:19:49;14.10;99.90
16976;DHT22;8604;48.148;-1.786;2023-08-06T02:22:17;14.10;99.90
16976;DHT22;8604;48.148;-1.786;2023-08-06T02:24:46;14.10;99.90
16976;DHT22;8604;48.148;-1.786;2023-08-06T02:27:14;14.10;99.90
16976;DHT22;8604;48.148;-1.786;2023-08-06T02:29:44;14.10;99.90
16976;DHT22;8604;48.148;-1.786;2023-08-06T02:32:12;14.10;99.90
16976;DHT22;8604;48.148;-1.786;2023-08-06T02:34:40;14.10;99.90
16976;DHT22;8604;48.148;-1.786;2023-08-06T02:37:09;14.10;99.90
16976;DHT22;8604;48.148;-1.786;2023-08-06T02:39:38;14.00;99.90
16976;DHT22;8604;48.148;-1.786;2023-08-06T02:42:07;14.00;99.90
16976;DHT22;8604;48.148;-1.786;2023-08-06T02:44:36;14.00;99.90
16976;DHT22;8604;48.148;-1.786;2023-08-06T02:47:06;14.00;99.90
16976;DHT22;8604;48.148;-1.786;2023-08-06T02:49:34;14.00;99.90
16976;DHT22;8604;48.148;-1.786;2023-08-06T02:52:03;14.00;99.90
16976;DHT22;8604;48.148;-1.786;2023-08-06T02:54:32;14.00;99.90
16976;DHT22;8604;48.148;-1.786;2023-08-06T02:57:01;13.90;99.90
16976;DHT22;8604;48.148;-1.786;2023-08-06T02:59:32;13.90;99.90
16976;DHT22;8604;48.148;-1.786;2023-08-06T03:02:15;13.90;99.90
16976;DHT22;8604;48.148;-1.786;2023-08-06T03:04:58;13.80;99.90
16976;DHT22;8604;48.148;-1.786;2023-08-06T03:07:30;13.80;99.90
16976;DHT22;8604;48.148;-1.786;2023-08-06T03:10:07;13.80;99.90
16976;DHT22;8604;48.148;-1.786;2023-08-06T03:12:36;13.80;99.90
16976;DHT22;8604;48.148;-1.786;2023-08-06T03:15:06;13.70;99.90
16976;DHT22;8604;48.148;-1.786;2023-08-06T03:17:36;13.70;99.90
16976;DHT22;8604;48.148;-1.786;2023-08-06T03:20:06;13.70;99.90
16976;DHT22;8604;48.148;-1.786;2023-08-06T03:22:35;13.60;99.90
16976;DHT22;8604;48.148;-1.786;2023-08-06T03:25:06;13.60;99.90
16976;DHT22;8604;48.148;-1.786;2023-08-06T03:27:36;13.50;99.90
16976;DHT22;8604;48.148;-1.786;2023-08-06T03:30:05;13.50;99.90
16976;DHT22;8604;48.148;-1.786;2023-08-06T03:32:35;13.40;99.90
16976;DHT22;8604;48.148;-1.786;2023-08-06T03:35:05;13.40;99.90
16976;DHT22;8604;48.148;-1.786;2023-08-06T03:37:33;13.40;99.90
16976;DHT22;8604;48.148;-1.786;2023-08-06T03:40:02;13.40;99.90
16976;DHT22;8604;48.148;-1.786;2023-08-06T03:42:32;13.40;99.90
16976;DHT22;8604;48.148;-1.786;2023-08-06T03:45:02;13.30;99.90
16976;DHT22;8604;48.148;-1.786;2023-08-06T03:47:31;13.30;99.90
16976;DHT22;8604;48.148;-1.786;2023-08-06T03:50:01;13.40;99.90
16976;DHT22;8604;48.148;-1.786;2023-08-06T03:52:30;13.40;99.90
16976;DHT22;8604;48.148;-1.786;2023-08-06T03:54:58;13.40;99.90
16976;DHT22;8604;48.148;-1.786;2023-08-06T03:57:26;13.40;99.90
16976;DHT22;8604;48.148;-1.786;2023-08-06T03:59:55;13.40;99.90
16976;DHT22;8604;48.148;-1.786;2023-08-06T04:02:26;13.40;99.90
16976;DHT22;8604;48.148;-1.786;2023-08-06T04:04:54;13.30;99.90
16976;DHT22;8604;48.148;-1.786;2023-08-06T04:07:24;13.30;99.90
16976;DHT22;8604;48.148;-1.786;2023-08-06T04:09:56;13.30;99.90
16976;DHT22;8604;48.148;-1.786;2023-08-06T04:12:25;13.20;99.90
16976;DHT22;8604;48.148;-1.786;2023-08-06T04:14:54;13.20;99.90
16976;DHT22;8604;48.148;-1.786;2023-08-06T04:17:22;13.20;99.90
16976;DHT22;8604;48.148;-1.786;2023-08-06T04:19:52;13.20;99.90
16976;DHT22;8604;48.148;-1.786;2023-08-06T04:22:23;13.10;99.90
16976;DHT22;8604;48.148;-1.786;2023-08-06T04:24:52;13.10;99.90
16976;DHT22;8604;48.148;-1.786;2023-08-06T04:27:20;13.00;99.90
16976;DHT22;8604;48.148;-1.786;2023-08-06T04:29:49;13.00;99.90
16976;DHT22;8604;48.148;-1.786;2023-08-06T04:32:18;13.00;99.90
16976;DHT22;8604;48.148;-1.786;2023-08-06T04:34:51;13.00;99.90
16976;DHT22;8604;48.148;-1.786;2023-08-06T04:37:20;13.10;99.90
16976;DHT22;8604;48.148;-1.786;2023-08-06T04:39:50;13.10;99.90
16976;DHT22;8604;48.148;-1.786;2023-08-06T04:42:19;13.00;99.90
16976;DHT22;8604;48.148;-1.786;2023-08-06T04:44:47;13.00;99.90
16976;DHT22;8604;48.148;-1.786;2023-08-06T04:47:15;13.10;99.90
16976;DHT22;8604;48.148;-1.786;2023-08-06T04:49:44;13.00;99.90
16976;DHT22;8604;48.148;-1.786;2023-08-06T04:52:13;13.00;99.90
16976;DHT22;8604;48.148;-1.786;2023-08-06T04:54:41;13.00;99.90
16976;DHT22;8604;48.148;-1.786;2023-08-06T04:57:10;13.00;99.90
16976;DHT22;8604;48.148;-1.786;2023-08-06T04:59:39;13.00;99.90
16976;DHT22;8604;48.148;-1.786;2023-08-06T05:02:07;13.00;99.90
16976;DHT22;8604;48.148;-1.786;2023-08-06T05:04:35;13.00;99.90
16976;DHT22;8604;48.148;-1.786;2023-08-06T05:07:05;13.00;99.90
16976;DHT22;8604;48.148;-1.786;2023-08-06T05:09:33;13.00;99.90
16976;DHT22;8604;48.148;-1.786;2023-08-06T05:12:03;13.00;99.90
16976;DHT22;8604;48.148;-1.786;2023-08-06T05:14:33;13.00;99.90
16976;DHT22;8604;48.148;-1.786;2023-08-06T05:17:01;13.00;99.90
16976;DHT22;8604;48.148;-1.786;2023-08-06T05:19:31;13.00;99.90
16976;DHT22;8604;48.148;-1.786;2023-08-06T05:22:00;13.10;99.90
16976;DHT22;8604;48.148;-1.786;2023-08-06T05:24:29;13.10;99.90
16976;DHT22;8604;48.148;-1.786;2023-08-06T05:26:57;13.10;99.90
16976;DHT22;8604;48.148;-1.786;2023-08-06T05:29:25;13.10;99.90
16976;DHT22;8604;48.148;-1.786;2023-08-06T05:31:56;13.10;99.90
16976;DHT22;8604;48.148;-1.786;2023-08-06T05:34:28;13.20;99.90
16976;DHT22;8604;48.148;-1.786;2023-08-06T05:36:56;13.20;99.90
16976;DHT22;8604;48.148;-1.786;2023-08-06T05:39:25;13.30;99.90
16976;DHT22;8604;48.148;-1.786;2023-08-06T05:41:53;13.30;99.90
16976;DHT22;8604;48.148;-1.786;2023-08-06T05:44:23;13.30;99.90
16976;DHT22;8604;48.148;-1.786;2023-08-06T05:46:52;13.30;99.90
16976;DHT22;8604;48.148;-1.786;2023-08-06T05:49:22;13.30;99.90
16976;DHT22;8604;48.148;-1.786;2023-08-06T05:51:50;13.30;99.90
16976;DHT22;8604;48.148;-1.786;2023-08-06T05:54:33;13.40;99.90
16976;DHT22;8604;48.148;-1.786;2023-08-06T05:57:12;13.40;99.90
16976;DHT22;8604;48.148;-1.786;2023-08-06T06:00:14;13.50;99.90
16976;DHT22;8604;48.148;-1.786;2023-08-06T06:03:13;13.60;99.90
16976;DHT22;8604;48.148;-1.786;2023-08-06T06:05:55;13.70;99.90
16976;DHT22;8604;48.148;-1.786;2023-08-06T06:08:37;13.70;99.90
16976;DHT22;8604;48.148;-1.786;2023-08-06T06:11:19;13.80;99.90
16976;DHT22;8604;48.148;-1.786;2023-08-06T06:14:36;13.80;99.90
16976;DHT22;8604;48.148;-1.786;2023-08-06T06:17:27;13.90;99.90
16976;DHT22;8604;48.148;-1.786;2023-08-06T06:20:08;13.90;99.90
16976;DHT22;8604;48.148;-1.786;2023-08-06T06:23:09;14.00;99.90
16976;DHT22;8604;48.148;-1.786;2023-08-06T06:25:50;14.00;99.90
16976;DHT22;8604;48.148;-1.786;2023-08-06T06:28:59;14.10;99.90
16976;DHT22;8604;48.148;-1.786;2023-08-06T06:31:51;14.10;99.90
16976;DHT22;8604;48.148;-1.786;2023-08-06T06:34:52;14.20;99.90
16976;DHT22;8604;48.148;-1.786;2023-08-06T06:37:42;14.20;99.90
16976;DHT22;8604;48.148;-1.786;2023-08-06T06:40:21;14.20;99.90
16976;DHT22;8604;48.148;-1.786;2023-08-06T06:43:06;14.20;99.90
16976;DHT22;8604;48.148;-1.786;2023-08-06T06:45:55;14.20;99.90
16976;DHT22;8604;48.148;-1.786;2023-08-06T06:48:48;14.30;99.90
16976;DHT22;8604;48.148;-1.786;2023-08-06T06:51:16;14.40;99.90
16976;DHT22;8604;48.148;-1.786;2023-08-06T06:53:45;14.50;99.90
16976;DHT22;8604;48.148;-1.786;2023-08-06T06:56:14;14.60;99.90
16976;DHT22;8604;48.148;-1.786;2023-08-06T06:58:43;14.80;99.90
16976;DHT22;8604;48.148;-1.786;2023-08-06T07:01:11;14.80;99.90
16976;DHT22;8604;48.148;-1.786;2023-08-06T07:03:40;14.80;99.90
16976;DHT22;8604;48.148;-1.786;2023-08-06T07:06:08;15.10;99.90
16976;DHT22;8604;48.148;-1.786;2023-08-06T07:08:38;15.30;99.90
16976;DHT22;8604;48.148;-1.786;2023-08-06T07:11:06;15.50;99.90
16976;DHT22;8604;48.148;-1.786;2023-08-06T07:13:36;15.80;99.90
16976;DHT22;8604;48.148;-1.786;2023-08-06T07:16:05;16.20;99.90
16976;DHT22;8604;48.148;-1.786;2023-08-06T07:18:37;16.50;99.90
16976;DHT22;8604;48.148;-1.786;2023-08-06T07:21:06;16.70;99.90
16976;DHT22;8604;48.148;-1.786;2023-08-06T07:23:34;17.00;99.90
16976;DHT22;8604;48.148;-1.786;2023-08-06T07:26:03;17.40;99.90
16976;DHT22;8604;48.148;-1.786;2023-08-06T07:28:31;17.50;99.90
16976;DHT22;8604;48.148;-1.786;2023-08-06T07:31:03;17.90;99.90
16976;DHT22;8604;48.148;-1.786;2023-08-06T07:33:35;18.30;99.90
16976;DHT22;8604;48.148;-1.786;2023-08-06T07:36:12;18.50;99.90
16976;DHT22;8604;48.148;-1.786;2023-08-06T07:38:41;18.30;99.90
16976;DHT22;8604;48.148;-1.786;2023-08-06T07:41:09;18.30;99.90
16976;DHT22;8604;48.148;-1.786;2023-08-06T07:43:38;18.10;99.90
16976;DHT22;8604;48.148;-1.786;2023-08-06T07:46:08;18.40;99.90
16976;DHT22;8604;48.148;-1.786;2023-08-06T07:48:36;18.70;99.90
16976;DHT22;8604;48.148;-1.786;2023-08-06T07:51:05;18.80;99.90
16976;DHT22;8604;48.148;-1.786;2023-08-06T07:53:34;19.00;99.90
16976;DHT22;8604;48.148;-1.786;2023-08-06T07:56:02;19.30;99.90
16976;DHT22;8604;48.148;-1.786;2023-08-06T07:58:34;19.10;99.90
16976;DHT22;8604;48.148;-1.786;2023-08-06T08:01:15;19.40;99.90
16976;DHT22;8604;48.148;-1.786;2023-08-06T08:03:46;19.70;99.90
16976;DHT22;8604;48.148;-1.786;2023-08-06T08:06:28;20.30;99.90
16976;DHT22;8604;48.148;-1.786;2023-08-06T08:08:59;20.90;99.90
16976;DHT22;8604;48.148;-1.786;2023-08-06T08:11:27;21.20;99.90
16976;DHT22;8604;48.148;-1.786;2023-08-06T08:13:56;20.90;99.90
16976;DHT22;8604;48.148;-1.786;2023-08-06T08:16:26;20.40;99.90
16976;DHT22;8604;48.148;-1.786;2023-08-06T08:18:55;19.90;99.90
16976;DHT22;8604;48.148;-1.786;2023-08-06T08:21:24;19.70;99.90
16976;DHT22;8604;48.148;-1.786;2023-08-06T08:23:52;20.60;99.90
16976;DHT22;8604;48.148;-1.786;2023-08-06T08:26:21;21.00;99.90
16976;DHT22;8604;48.148;-1.786;2023-08-06T08:28:50;20.80;99.90
16976;DHT22;8604;48.148;-1.786;2023-08-06T08:31:19;20.40;99.90
16976;DHT22;8604;48.148;-1.786;2023-08-06T08:33:49;20.80;99.90
16976;DHT22;8604;48.148;-1.786;2023-08-06T08:36:21;21.40;99.90
16976;DHT22;8604;48.148;-1.786;2023-08-06T08:38:49;21.80;99.90
16976;DHT22;8604;48.148;-1.786;2023-08-06T08:41:20;22.30;99.90
16976;DHT22;8604;48.148;-1.786;2023-08-06T08:43:50;22.70;99.90
16976;DHT22;8604;48.148;-1.786;2023-08-06T08:46:34;23.20;99.90
16976;DHT22;8604;48.148;-1.786;2023-08-06T08:54:56;24.30;99.90
16976;DHT22;8604;48.148;-1.786;2023-08-06T08:57:31;23.40;99.90
16976;DHT22;8604;48.148;-1.786;2023-08-06T09:00:00;22.80;99.90
16976;DHT22;8604;48.148;-1.786;2023-08-06T09:02:29;22.50;99.90
16976;DHT22;8604;48.148;-1.786;2023-08-06T09:05:00;22.20;99.90
16976;DHT22;8604;48.148;-1.786;2023-08-06T09:07:34;22.70;99.90
16976;DHT22;8604;48.148;-1.786;2023-08-06T09:10:08;22.60;99.90
16976;DHT22;8604;48.148;-1.786;2023-08-06T09:12:37;22.20;99.90
16976;DHT22;8604;48.148;-1.786;2023-08-06T09:15:07;22.40;99.90
16976;DHT22;8604;48.148;-1.786;2023-08-06T09:17:36;22.10;99.90
16976;DHT22;8604;48.148;-1.786;2023-08-06T09:20:11;22.50;99.90
16976;DHT22;8604;48.148;-1.786;2023-08-06T09:22:40;23.10;99.90
16976;DHT22;8604;48.148;-1.786;2023-08-06T09:25:10;23.90;99.90
16976;DHT22;8604;48.148;-1.786;2023-08-06T09:27:41;24.20;99.90
16976;DHT22;8604;48.148;-1.786;2023-08-06T09:30:28;23.80;99.90
16976;DHT22;8604;48.148;-1.786;2023-08-06T09:32:57;23.20;99.90
16976;DHT22;8604;48.148;-1.786;2023-08-06T09:35:28;22.70;99.90
16976;DHT22;8604;48.148;-1.786;2023-08-06T09:38:05;22.40;99.90
16976;DHT22;8604;48.148;-1.786;2023-08-06T09:40:37;22.10;99.90
16976;DHT22;8604;48.148;-1.786;2023-08-06T09:43:06;21.80;99.90
16976;DHT22;8604;48.148;-1.786;2023-08-06T09:45:35;21.90;99.90
16976;DHT22;8604;48.148;-1.786;2023-08-06T09:48:05;21.80;99.90
16976;DHT22;8604;48.148;-1.786;2023-08-06T09:50:36;21.70;99.90
16976;DHT22;8604;48.148;-1.786;2023-08-06T09:53:06;21.60;99.90
16976;DHT22;8604;48.148;-1.786;2023-08-06T09:55:56;21.40;99.90
16976;DHT22;8604;48.148;-1.786;2023-08-06T09:58:25;21.30;99.90
16976;DHT22;8604;48.148;-1.786;2023-08-06T10:00:53;21.80;99.90
16976;DHT22;8604;48.148;-1.786;2023-08-06T10:03:22;22.90;99.90
16976;DHT22;8604;48.148;-1.786;2023-08-06T10:06:13;24.00;99.90
16976;DHT22;8604;48.148;-1.786;2023-08-06T10:08:44;25.00;99.90
16976;DHT22;8604;48.148;-1.786;2023-08-06T10:11:17;25.10;99.90
16976;DHT22;8604;48.148;-1.786;2023-08-06T10:14:13;24.70;99.90
16976;DHT22;8604;48.148;-1.786;2023-08-06T10:16:49;25.10;99.90
16976;DHT22;8604;48.148;-1.786;2023-08-06T10:19:22;25.30;99.90
16976;DHT22;8604;48.148;-1.786;2023-08-06T10:22:25;25.40;99.90
16976;DHT22;8604;48.148;-1.786;2023-08-06T10:24:59;25.50;99.90
16976;DHT22;8604;48.148;-1.786;2023-08-06T10:27:34;24.90;99.90
16976;DHT22;8604;48.148;-1.786;2023-08-06T10:30:31;24.40;99.90
16976;DHT22;8604;48.148;-1.786;2023-08-06T10:33:00;23.60;99.90
16976;DHT22;8604;48.148;-1.786;2023-08-06T10:35:31;23.10;99.90
16976;DHT22;8604;48.148;-1.786;2023-08-06T10:38:03;23.10;99.90
16976;DHT22;8604;48.148;-1.786;2023-08-06T10:40:32;22.80;99.90
16976;DHT22;8604;48.148;-1.786;2023-08-06T10:43:04;22.60;99.90
16976;DHT22;8604;48.148;-1.786;2023-08-06T10:45:34;23.50;99.90
16976;DHT22;8604;48.148;-1.786;2023-08-06T10:48:03;24.30;99.90
16976;DHT22;8604;48.148;-1.786;2023-08-06T10:50:32;24.10;99.90
16976;DHT22;8604;48.148;-1.786;2023-08-06T10:53:04;24.00;99.90
16976;DHT22;8604;48.148;-1.786;2023-08-06T10:55:34;23.70;99.90
16976;DHT22;8604;48.148;-1.786;2023-08-06T10:58:06;23.50;99.90
16976;DHT22;8604;48.148;-1.786;2023-08-06T11:00:35;24.30;99.90
16976;DHT22;8604;48.148;-1.786;2023-08-06T11:03:03;25.00;99.90
16976;DHT22;8604;48.148;-1.786;2023-08-06T11:05:32;25.70;99.90
16976;DHT22;8604;48.148;-1.786;2023-08-06T11:08:00;25.90;99.90
16976;DHT22;8604;48.148;-1.786;2023-08-06T11:10:29;25.80;99.90
16976;DHT22;8604;48.148;-1.786;2023-08-06T11:13:00;25.40;99.90
16976;DHT22;8604;48.148;-1.786;2023-08-06T11:15:31;25.50;99.90
16976;DHT22;8604;48.148;-1.786;2023-08-06T11:18:00;25.40;99.90
16976;DHT22;8604;48.148;-1.786;2023-08-06T11:20:29;25.80;99.90
16976;DHT22;8604;48.148;-1.786;2023-08-06T11:22:58;25.40;99.90
16976;DHT22;8604;48.148;-1.786;2023-08-06T11:25:27;25.00;99.90
16976;DHT22;8604;48.148;-1.786;2023-08-06T11:27:56;24.50;99.90
16976;DHT22;8604;48.148;-1.786;2023-08-06T11:30:27;24.30;99.90
16976;DHT22;8604;48.148;-1.786;2023-08-06T11:32:57;24.00;99.90
16976;DHT22;8604;48.148;-1.786;2023-08-06T11:35:26;23.70;99.90
16976;DHT22;8604;48.148;-1.786;2023-08-06T11:37:57;23.40;99.90
16976;DHT22;8604;48.148;-1.786;2023-08-06T11:40:25;23.50;99.90
16976;DHT22;8604;48.148;-1.786;2023-08-06T11:42:54;24.10;99.90
16976;DHT22;8604;48.148;-1.786;2023-08-06T11:45:25;24.30;99.90
16976;DHT22;8604;48.148;-1.786;2023-08-06T11:47:53;24.40;99.90
16976;DHT22;8604;48.148;-1.786;2023-08-06T11:50:24;24.60;99.90
16976;DHT22;8604;48.148;-1.786;2023-08-06T11:52:56;24.80;99.90
16976;DHT22;8604;48.148;-1.786;2023-08-06T11:55:25;25.10;99.90
16976;DHT22;8604;48.148;-1.786;2023-08-06T11:57:55;24.80;99.90
16976;DHT22;8604;48.148;-1.786;2023-08-06T12:00:26;24.70;99.90
16976;DHT22;8604;48.148;-1.786;2023-08-06T12:02:57;24.10;99.90
16976;DHT22;8604;48.148;-1.786;2023-08-06T12:05:31;24.10;99.90
16976;DHT22;8604;48.148;-1.786;2023-08-06T12:08:02;24.70;99.90
16976;DHT22;8604;48.148;-1.786;2023-08-06T12:10:31;24.70;99.90
16976;DHT22;8604;48.148;-1.786;2023-08-06T12:13:00;24.80;99.90
16976;DHT22;8604;48.148;-1.786;2023-08-06T12:15:30;25.20;99.90
16976;DHT22;8604;48.148;-1.786;2023-08-06T12:17:59;24.80;99.90
16976;DHT22;8604;48.148;-1.786;2023-08-06T12:20:29;24.10;99.90
16976;DHT22;8604;48.148;-1.786;2023-08-06T12:22:58;23.80;99.90
16976;DHT22;8604;48.148;-1.786;2023-08-06T12:25:27;23.70;99.90
16976;DHT22;8604;48.148;-1.786;2023-08-06T12:27:55;24.00;99.90
16976;DHT22;8604;48.148;-1.786;2023-08-06T12:30:25;24.30;99.90
16976;DHT22;8604;48.148;-1.786;2023-08-06T12:32:54;24.40;99.90
16976;DHT22;8604;48.148;-1.786;2023-08-06T12:35:23;24.40;99.90
16976;DHT22;8604;48.148;-1.786;2023-08-06T12:37:54;24.30;99.90
16976;DHT22;8604;48.148;-1.786;2023-08-06T12:40:25;24.30;99.90
16976;DHT22;8604;48.148;-1.786;2023-08-06T12:43:04;24.00;99.90
16976;DHT22;8604;48.148;-1.786;2023-08-06T12:45:33;23.90;99.90
16976;DHT22;8604;48.148;-1.786;2023-08-06T12:48:01;23.60;99.90
16976;DHT22;8604;48.148;-1.786;2023-08-06T12:50:30;23.20;99.90
16976;DHT22;8604;48.148;-1.786;2023-08-06T12:53:01;23.10;99.90
16976;DHT22;8604;48.148;-1.786;2023-08-06T12:55:31;23.10;99.90
16976;DHT22;8604;48.148;-1.786;2023-08-06T12:58:00;23.30;99.90
16976;DHT22;8604;48.148;-1.786;2023-08-06T13:00:28;23.40;99.90
16976;DHT22;8604;48.148;-1.786;2023-08-06T13:02:57;23.40;99.90
16976;DHT22;8604;48.148;-1.786;2023-08-06T13:05:25;23.50;99.90
16976;DHT22;8604;48.148;-1.786;2023-08-06T13:07:53;23.40;99.90
16976;DHT22;8604;48.148;-1.786;2023-08-06T13:10:23;23.30;99.90
16976;DHT22;8604;48.148;-1.786;2023-08-06T13:12:52;22.90;99.90
16976;DHT22;8604;48.148;-1.786;2023-08-06T13:15:21;22.70;99.90
16976;DHT22;8604;48.148;-1.786;2023-08-06T13:17:49;22.70;99.90
16976;DHT22;8604;48.148;-1.786;2023-08-06T13:20:18;22.70;99.90
16976;DHT22;8604;48.148;-1.786;2023-08-06T13:22:47;22.90;99.90
16976;DHT22;8604;48.148;-1.786;2023-08-06T13:25:18;23.00;99.90
16976;DHT22;8604;48.148;-1.786;2023-08-06T13:27:48;22.90;99.90
16976;DHT22;8604;48.148;-1.786;2023-08-06T13:30:16;22.80;99.90
16976;DHT22;8604;48.148;-1.786;2023-08-06T13:32:46;23.00;99.90
16976;DHT22;8604;48.148;-1.786;2023-08-06T13:35:15;23.10;99.90
16976;DHT22;8604;48.148;-1.786;2023-08-06T13:37:43;23.10;99.90
16976;DHT22;8604;48.148;-1.786;2023-08-06T13:40:11;22.90;99.90
16976;DHT22;8604;48.148;-1.786;2023-08-06T13:42:39;22.60;99.90
16976;DHT22;8604;48.148;-1.786;2023-08-06T13:45:09;22.30;99.90
16976;DHT22;8604;48.148;-1.786;2023-08-06T13:47:38;22.20;99.90
16976;DHT22;8604;48.148;-1.786;2023-08-06T13:50:07;22.30;99.90
16976;DHT22;8604;48.148;-1.786;2023-08-06T13:52:36;22.60;99.90
16976;DHT22;8604;48.148;-1.786;2023-08-06T13:55:05;22.70;99.90
16976;DHT22;8604;48.148;-1.786;2023-08-06T13:57:34;22.60;99.90
16976;DHT22;8604;48.148;-1.786;2023-08-06T14:00:03;22.50;99.90
16976;DHT22;8604;48.148;-1.786;2023-08-06T14:02:39;22.20;99.90
16976;DHT22;8604;48.148;-1.786;2023-08-06T14:05:08;22.00;99.90
16976;DHT22;8604;48.148;-1.786;2023-08-06T14:07:37;21.90;99.90
16976;DHT22;8604;48.148;-1.786;2023-08-06T14:10:06;21.80;99.90
16976;DHT22;8604;48.148;-1.786;2023-08-06T14:12:36;21.90;99.90
16976;DHT22;8604;48.148;-1.786;2023-08-06T14:15:05;21.90;99.90
16976;DHT22;8604;48.148;-1.786;2023-08-06T14:17:33;22.00;99.90
16976;DHT22;8604;48.148;-1.786;2023-08-06T14:20:04;22.00;99.90
16976;DHT22;8604;48.148;-1.786;2023-08-06T14:22:34;22.00;99.90
16976;DHT22;8604;48.148;-1.786;2023-08-06T14:25:03;22.10;99.90
16976;DHT22;8604;48.148;-1.786;2023-08-06T14:27:32;22.20;99.90
16976;DHT22;8604;48.148;-1.786;2023-08-06T14:30:00;22.10;99.90
16976;DHT22;8604;48.148;-1.786;2023-08-06T14:32:30;21.90;99.90
16976;DHT22;8604;48.148;-1.786;2023-08-06T14:34:58;21.90;99.90
16976;DHT22;8604;48.148;-1.786;2023-08-06T14:37:28;21.80;99.90
16976;DHT22;8604;48.148;-1.786;2023-08-06T14:39:56;21.80;99.90
16976;DHT22;8604;48.148;-1.786;2023-08-06T14:42:25;21.80;99.90
16976;DHT22;8604;48.148;-1.786;2023-08-06T14:44:53;21.90;99.90
16976;DHT22;8604;48.148;-1.786;2023-08-06T14:47:21;21.90;99.90
16976;DHT22;8604;48.148;-1.786;2023-08-06T14:49:50;21.70;99.90
16976;DHT22;8604;48.148;-1.786;2023-08-06T14:52:18;21.60;99.90
16976;DHT22;8604;48.148;-1.786;2023-08-06T14:54:48;21.50;99.90
16976;DHT22;8604;48.148;-1.786;2023-08-06T14:57:19;21.40;99.90
16976;DHT22;8604;48.148;-1.786;2023-08-06T14:59:48;21.50;99.90
16976;DHT22;8604;48.148;-1.786;2023-08-06T15:02:16;21.40;99.90
16976;DHT22;8604;48.148;-1.786;2023-08-06T15:04:45;21.40;99.90
16976;DHT22;8604;48.148;-1.786;2023-08-06T15:07:14;21.50;99.90
16976;DHT22;8604;48.148;-1.786;2023-08-06T15:09:42;21.50;99.90
16976;DHT22;8604;48.148;-1.786;2023-08-06T15:12:33;21.40;99.90
16976;DHT22;8604;48.148;-1.786;2023-08-06T15:15:02;21.20;99.90
16976;DHT22;8604;48.148;-1.786;2023-08-06T15:17:31;21.20;99.90
16976;DHT22;8604;48.148;-1.786;2023-08-06T15:20:00;21.20;99.90
16976;DHT22;8604;48.148;-1.786;2023-08-06T15:22:28;21.20;99.90
16976;DHT22;8604;48.148;-1.786;2023-08-06T15:24:59;21.20;99.90
16976;DHT22;8604;48.148;-1.786;2023-08-06T15:27:27;21.10;99.90
16976;DHT22;8604;48.148;-1.786;2023-08-06T15:29:57;21.00;99.90
16976;DHT22;8604;48.148;-1.786;2023-08-06T15:32:25;20.90;99.90
16976;DHT22;8604;48.148;-1.786;2023-08-06T15:34:54;20.80;99.90
16976;DHT22;8604;48.148;-1.786;2023-08-06T15:37:23;20.80;99.90
16976;DHT22;8604;48.148;-1.786;2023-08-06T15:39:52;20.70;99.90
16976;DHT22;8604;48.148;-1.786;2023-08-06T15:42:20;20.80;99.90
16976;DHT22;8604;48.148;-1.786;2023-08-06T15:44:49;20.90;99.90
16976;DHT22;8604;48.148;-1.786;2023-08-06T15:47:18;21.00;99.90
16976;DHT22;8604;48.148;-1.786;2023-08-06T15:49:46;20.90;99.90
16976;DHT22;8604;48.148;-1.786;2023-08-06T15:52:15;20.90;99.90
16976;DHT22;8604;48.148;-1.786;2023-08-06T15:54:44;20.80;99.90
16976;DHT22;8604;48.148;-1.786;2023-08-06T15:57:12;20.80;99.90
16976;DHT22;8604;48.148;-1.786;2023-08-06T15:59:42;20.80;99.90
16976;DHT22;8604;48.148;-1.786;2023-08-06T16:02:11;20.80;99.90